sensor_id;sensor_type;location;lat;lon;timestamp;pressure;altitude;pressure_sealevel;temperature;humidity
51452;BME280;37521;52.020;-1.740;2023-05-25T00:01:53;101096.69;;;7.29;100.00
51452;BME280;37521;52.020;-1.740;2023-05-25T00:04:24;101095.81;;;7.27;100.00
51452;BME280;37521;52.020;-1.740;2023-05-25T00:06:58;101089.75;;;7.23;100.00
51452;BME280;37521;52.020;-1.740;2023-05-25T00:09:26;101101.13;;;7.24;100.00
51452;BME280;37521;52.020;-1.740;2023-05-25T00:11:54;101101.13;;;7.24;100.00
51452;BME280;37521;52.020;-1.740;2023-05-25T00:14:25;101097.69;;;7.19;100.00
51452;BME280;37521;52.020;-1.740;2023-05-25T00:16:53;101096.00;;;7.15;100.00
51452;BME280;37521;52.020;-1.740;2023-05-25T00:19:22;101100.47;;;7.09;100.00
51452;BME280;37521;52.020;-1.740;2023-05-25T00:21:51;101107.47;;;7.09;100.00
51452;BME280;37521;52.020;-1.740;2023-05-25T00:24:22;101102.22;;;7.09;100.00
51452;BME280;37521;52.020;-1.740;2023-05-25T00:26:50;101105.81;;;7.03;100.00
51452;BME280;37521;52.020;-1.740;2023-05-25T00:29:18;101117.16;;;7.05;100.00
51452;BME280;37521;52.020;-1.740;2023-05-25T00:31:47;101115.41;;;7.04;100.00
51452;BME280;37521;52.020;-1.740;2023-05-25T00:34:17;101113.69;;;7.03;100.00
51452;BME280;37521;52.020;-1.740;2023-05-25T00:36:47;101115.44;;;7.01;100.00
51452;BME280;37521;52.020;-1.740;2023-05-25T00:39:17;101112.91;;;6.97;100.00
51452;BME280;37521;52.020;-1.740;2023-05-25T00:41:48;101120.84;;;6.92;100.00
51452;BME280;37521;52.020;-1.740;2023-05-25T00:44:17;101115.59;;;6.92;100.00
51452;BME280;37521;52.020;-1.740;2023-05-25T00:46:49;101117.31;;;6.93;100.00
51452;BME280;37521;52.020;-1.740;2023-05-25T00:49:20;101118.16;;;6.97;100.00
51452;BME280;37521;52.020;-1.740;2023-05-25T00:51:51;101111.94;;;7.01;100.00
51452;BME280;37521;52.020;-1.740;2023-05-25T00:54:20;101115.44;;;7.03;100.00
51452;BME280;37521;52.020;-1.740;2023-05-25T00:56:57;101115.44;;;7.01;100.00
51452;BME280;37521;52.020;-1.740;2023-05-25T00:59:34;101117.38;;;6.90;100.00
51452;BME280;37521;52.020;-1.740;2023-05-25T01:02:08;101123.50;;;6.89;100.00
51452;BME280;37521;52.020;-1.740;2023-05-25T01:04:39;101117.38;;;6.90;100.00
51452;BME280;37521;52.020;-1.740;2023-05-25T01:07:16;101127.03;;;6.87;100.00
51452;BME280;37521;52.020;-1.740;2023-05-25T01:09:45;101132.34;;;6.83;100.00
51452;BME280;37521;52.020;-1.740;2023-05-25T01:12:16;101137.56;;;6.82;100.00
51452;BME280;37521;52.020;-1.740;2023-05-25T01:14:46;101131.50;;;6.80;100.00
51452;BME280;37521;52.020;-1.740;2023-05-25T01:17:16;101144.63;;;6.80;100.00
51452;BME280;37521;52.020;-1.740;2023-05-25T01:19:46;101149.03;;;6.78;100.00
51452;BME280;37521;52.020;-1.740;2023-05-25T01:22:40;101145.56;;;6.76;100.00
51452;BME280;37521;52.020;-1.740;2023-05-25T01:25:12;101147.28;;;6.77;100.00
51452;BME280;37521;52.020;-1.740;2023-05-25T01:27:44;101145.56;;;6.74;100.00
51452;BME280;37521;52.020;-1.740;2023-05-25T01:30:16;101149.03;;;6.75;100.00
51452;BME280;37521;52.020;-1.740;2023-05-25T01:32:47;101143.78;;;6.75;100.00
51452;BME280;37521;52.020;-1.740;2023-05-25T01:35:16;101142.06;;;6.75;100.00
51452;BME280;37521;52.020;-1.740;2023-05-25T01:37:48;101142.94;;;6.76;100.00
51452;BME280;37521;52.020;-1.740;2023-05-25T01:40:17;101141.13;;;6.79;100.00
51452;BME280;37521;52.020;-1.740;2023-05-25T01:42:45;101142.84;;;6.80;100.00
51452;BME280;37521;52.020;-1.740;2023-05-25T01:45:14;101147.25;;;6.80;100.00
51452;BME280;37521;52.020;-1.740;2023-05-25T01:47:46;101154.25;;;6.79;100.00
51452;BME280;37521;52.020;-1.740;2023-05-25T01:50:23;101149.03;;;6.78;100.00
51452;BME280;37521;52.020;-1.740;2023-05-25T01:53:00;101157.75;;;6.78;100.00
51452;BME280;37521;52.020;-1.740;2023-05-25T01:55:35;101159.47;;;6.81;100.00
51452;BME280;37521;52.020;-1.740;2023-05-25T01:58:05;101159.47;;;6.82;100.00
51452;BME280;37521;52.020;-1.740;2023-05-25T02:00:36;101160.34;;;6.81;100.00
51452;BME280;37521;52.020;-1.740;2023-05-25T02:03:06;101163.94;;;6.76;100.00
51452;BME280;37521;52.020;-1.740;2023-05-25T02:05:36;101161.31;;;6.73;100.00
51452;BME280;37521;52.020;-1.740;2023-05-25T02:08:07;101163.09;;;6.72;100.00
51452;BME280;37521;52.020;-1.740;2023-05-25T02:10:35;101173.50;;;6.80;100.00
51452;BME280;37521;52.020;-1.740;2023-05-25T02:13:04;101162.09;;;6.82;100.00
51452;BME280;37521;52.020;-1.740;2023-05-25T02:15:32;101157.72;;;6.83;100.00
51452;BME280;37521;52.020;-1.740;2023-05-25T02:18:01;101168.22;;;6.83;100.00
51452;BME280;37521;52.020;-1.740;2023-05-25T02:20:31;101167.31;;;6.86;100.00
51452;BME280;37521;52.020;-1.740;2023-05-25T02:23:00;101160.22;;;6.92;100.00
51452;BME280;37521;52.020;-1.740;2023-05-25T02:25:30;101157.66;;;6.86;100.00
51452;BME280;37521;52.020;-1.740;2023-05-25T02:27:59;101157.69;;;6.85;100.00
51452;BME280;37521;52.020;-1.740;2023-05-25T02:30:27;101158.59;;;6.83;100.00
51452;BME280;37521;52.020;-1.740;2023-05-25T02:32:57;101152.47;;;6.83;100.00
51452;BME280;37521;52.020;-1.740;2023-05-25T02:35:28;101149.00;;;6.79;100.00
51452;BME280;37521;52.020;-1.740;2023-05-25T02:37:57;101155.13;;;6.80;100.00
51452;BME280;37521;52.020;-1.740;2023-05-25T02:40:26;101155.09;;;6.81;100.00
51452;BME280;37521;52.020;-1.740;2023-05-25T02:42:56;101156.06;;;6.73;100.00
51452;BME280;37521;52.020;-1.740;2023-05-25T02:45:24;101157.03;;;6.69;100.00
51452;BME280;37521;52.020;-1.740;2023-05-25T02:47:52;101157.88;;;6.71;100.00
51452;BME280;37521;52.020;-1.740;2023-05-25T02:50:22;101154.34;;;6.72;100.00
51452;BME280;37521;52.020;-1.740;2023-05-25T02:52:55;101152.56;;;6.75;100.00
51452;BME280;37521;52.020;-1.740;2023-05-25T02:55:24;101149.88;;;6.80;100.00
51452;BME280;37521;52.020;-1.740;2023-05-25T02:57:53;101155.09;;;6.83;100.00
51452;BME280;37521;52.020;-1.740;2023-05-25T03:00:39;101163.00;;;6.80;100.00
51452;BME280;37521;52.020;-1.740;2023-05-25T03:03:08;101153.44;;;6.76;100.00
51452;BME280;37521;52.020;-1.740;2023-05-25T03:05:37;101149.09;;;6.72;100.00
51452;BME280;37521;52.020;-1.740;2023-05-25T03:08:06;101157.88;;;6.68;100.00
51452;BME280;37521;52.020;-1.740;2023-05-25T03:10:36;101158.78;;;6.67;100.00
51452;BME280;37521;52.020;-1.740;2023-05-25T03:13:07;101164.91;;;6.66;100.00
51452;BME280;37521;52.020;-1.740;2023-05-25T03:15:39;101159.66;;;6.69;100.00
51452;BME280;37521;52.020;-1.740;2023-05-25T03:18:10;101161.38;;;6.70;100.00
51452;BME280;37521;52.020;-1.740;2023-05-25T03:20:40;101158.69;;;6.73;100.00
51452;BME280;37521;52.020;-1.740;2023-05-25T03:23:10;101167.47;;;6.72;100.00
51452;BME280;37521;52.020;-1.740;2023-05-25T03:25:38;101163.94;;;6.73;100.00
51452;BME280;37521;52.020;-1.740;2023-05-25T03:28:07;101169.19;;;6.74;100.00
51452;BME280;37521;52.020;-1.740;2023-05-25T03:30:38;101173.53;;;6.77;100.00
51452;BME280;37521;52.020;-1.740;2023-05-25T03:33:08;101184.06;;;6.74;100.00
51452;BME280;37521;52.020;-1.740;2023-05-25T03:35:42;101183.28;;;6.66;100.00
51452;BME280;37521;52.020;-1.740;2023-05-25T03:38:11;101176.31;;;6.63;100.00
51452;BME280;37521;52.020;-1.740;2023-05-25T03:40:39;101187.69;;;6.64;100.00
51452;BME280;37521;52.020;-1.740;2023-05-25T03:43:08;101176.31;;;6.65;100.00
51452;BME280;37521;52.020;-1.740;2023-05-25T03:45:36;101172.75;;;6.70;100.00
51452;BME280;37521;52.020;-1.740;2023-05-25T03:48:06;101174.44;;;6.74;100.00
51452;BME280;37521;52.020;-1.740;2023-05-25T03:50:35;101173.53;;;6.77;100.00
51452;BME280;37521;52.020;-1.740;2023-05-25T03:53:05;101169.16;;;6.77;100.00
51452;BME280;37521;52.020;-1.740;2023-05-25T03:55:34;101172.66;;;6.75;100.00
51452;BME280;37521;52.020;-1.740;2023-05-25T03:58:03;101171.78;;;6.77;100.00
51452;BME280;37521;52.020;-1.740;2023-05-25T04:00:31;101169.97;;;6.81;100.00
51452;BME280;37521;52.020;-1.740;2023-05-25T04:03:00;101167.25;;;6.89;100.00
51452;BME280;37521;52.020;-1.740;2023-05-25T04:05:30;101174.09;;;7.00;100.00
51452;BME280;37521;52.020;-1.740;2023-05-25T04:07:58;101172.38;;;6.99;100.00
51452;BME280;37521;52.020;-1.740;2023-05-25T04:10:28;101165.34;;;7.01;100.00
51452;BME280;37521;52.020;-1.740;2023-05-25T04:12:56;101169.72;;;7.02;100.00
51452;BME280;37521;52.020;-1.740;2023-05-25T04:15:25;101149.50;;;7.09;100.00
51452;BME280;37521;52.020;-1.740;2023-05-25T04:18:02;101159.00;;;7.18;100.00
51452;BME280;37521;52.020;-1.740;2023-05-25T04:20:32;101155.41;;;7.25;100.00
51452;BME280;37521;52.020;-1.740;2023-05-25T04:23:00;101161.44;;;7.31;100.00
51452;BME280;37521;52.020;-1.740;2023-05-25T04:25:30;101158.75;;;7.36;100.00
51452;BME280;37521;52.020;-1.740;2023-05-25T04:27:58;101163.00;;;7.42;100.00
51452;BME280;37521;52.020;-1.740;2023-05-25T04:30:47;101165.56;;;7.49;100.00
51452;BME280;37521;52.020;-1.740;2023-05-25T04:33:29;101170.66;;;7.58;100.00
51452;BME280;37521;52.020;-1.740;2023-05-25T04:36:02;101170.56;;;7.64;100.00
51452;BME280;37521;52.020;-1.740;2023-05-25T04:38:32;101174.88;;;7.70;100.00
51452;BME280;37521;52.020;-1.740;2023-05-25T04:41:01;101168.66;;;7.76;100.00
51452;BME280;37521;52.020;-1.740;2023-05-25T04:43:30;101171.16;;;7.83;100.00
51452;BME280;37521;52.020;-1.740;2023-05-25T04:45:59;101168.41;;;7.88;100.00
51452;BME280;37521;52.020;-1.740;2023-05-25T04:48:29;101170.06;;;7.95;100.00
51452;BME280;37521;52.020;-1.740;2023-05-25T04:51:01;101174.34;;;8.01;100.00
51452;BME280;37521;52.020;-1.740;2023-05-25T04:53:32;101176.84;;;8.08;100.00
51452;BME280;37521;52.020;-1.740;2023-05-25T04:56:02;101182.00;;;8.14;100.00
51452;BME280;37521;52.020;-1.740;2023-05-25T04:58:31;101181.06;;;8.18;100.00
51452;BME280;37521;52.020;-1.740;2023-05-25T05:01:00;101179.19;;;8.25;100.00
51452;BME280;37521;52.020;-1.740;2023-05-25T05:03:28;101183.50;;;8.28;100.00
51452;BME280;37521;52.020;-1.740;2023-05-25T05:05:57;101183.47;;;8.31;100.00
51452;BME280;37521;52.020;-1.740;2023-05-25T05:08:29;101190.41;;;8.35;100.00
51452;BME280;37521;52.020;-1.740;2023-05-25T05:10:58;101202.66;;;8.39;100.00
51452;BME280;37521;52.020;-1.740;2023-05-25T05:13:27;101199.06;;;8.43;100.00
51452;BME280;37521;52.020;-1.740;2023-05-25T05:15:56;101199.84;;;8.48;100.00
51452;BME280;37521;52.020;-1.740;2023-05-25T05:18:24;101197.16;;;8.51;100.00
51452;BME280;37521;52.020;-1.740;2023-05-25T05:20:55;101205.06;;;8.51;100.00
51452;BME280;37521;52.020;-1.740;2023-05-25T05:23:25;101195.38;;;8.53;100.00
51452;BME280;37521;52.020;-1.740;2023-05-25T05:25:56;101194.41;;;8.57;100.00
51452;BME280;37521;52.020;-1.740;2023-05-25T05:28:24;101202.25;;;8.60;100.00
51452;BME280;37521;52.020;-1.740;2023-05-25T05:30:54;101208.34;;;8.62;100.00
51452;BME280;37521;52.020;-1.740;2023-05-25T05:33:23;101208.28;;;8.65;100.00
51452;BME280;37521;52.020;-1.740;2023-05-25T05:35:52;101201.19;;;8.70;100.00
51452;BME280;37521;52.020;-1.740;2023-05-25T05:38:22;101203.69;;;8.75;100.00
51452;BME280;37521;52.020;-1.740;2023-05-25T05:40:51;101198.34;;;8.80;100.00
51452;BME280;37521;52.020;-1.740;2023-05-25T05:43:23;101192.09;;;8.85;100.00
51452;BME280;37521;52.020;-1.740;2023-05-25T05:45:52;101201.63;;;8.92;100.00
51452;BME280;37521;52.020;-1.740;2023-05-25T05:48:20;101203.25;;;8.98;100.00
51452;BME280;37521;52.020;-1.740;2023-05-25T05:50:48;101205.78;;;9.04;100.00
51452;BME280;37521;52.020;-1.740;2023-05-25T05:53:19;101209.19;;;9.08;100.00
51452;BME280;37521;52.020;-1.740;2023-05-25T05:55:47;101216.94;;;9.15;100.00
51452;BME280;37521;52.020;-1.740;2023-05-25T05:58:24;101213.34;;;9.19;100.00
51452;BME280;37521;52.020;-1.740;2023-05-25T06:00:54;101221.22;;;9.21;100.00
51452;BME280;37521;52.020;-1.740;2023-05-25T06:03:23;101232.63;;;9.21;100.00
51452;BME280;37521;52.020;-1.740;2023-05-25T06:05:54;101238.75;;;9.23;100.00
51452;BME280;37521;52.020;-1.740;2023-05-25T06:08:22;101249.19;;;9.26;100.00
51452;BME280;37521;52.020;-1.740;2023-05-25T06:10:51;101247.38;;;9.30;100.00
51452;BME280;37521;52.020;-1.740;2023-05-25T06:13:22;101244.59;;;9.38;100.00
51452;BME280;37521;52.020;-1.740;2023-05-25T06:15:51;101245.31;;;9.44;100.00
51452;BME280;37521;52.020;-1.740;2023-05-25T06:18:23;101254.81;;;9.51;100.00
51452;BME280;37521;52.020;-1.740;2023-05-25T06:20:53;101257.34;;;9.56;100.00
51452;BME280;37521;52.020;-1.740;2023-05-25T06:23:21;101257.25;;;9.61;100.00
51452;BME280;37521;52.020;-1.740;2023-05-25T06:25:51;101253.69;;;9.63;100.00
51452;BME280;37521;52.020;-1.740;2023-05-25T06:28:20;101259.84;;;9.62;100.00
51452;BME280;37521;52.020;-1.740;2023-05-25T06:30:49;101258.06;;;9.64;100.00
51452;BME280;37521;52.020;-1.740;2023-05-25T06:33:19;101245.69;;;9.66;100.00
51452;BME280;37521;52.020;-1.740;2023-05-25T06:35:48;101257.13;;;9.67;100.00
51452;BME280;37521;52.020;-1.740;2023-05-25T06:38:17;101256.09;;;9.72;100.00
51452;BME280;37521;52.020;-1.740;2023-05-25T06:40:46;101258.59;;;9.78;100.00
51452;BME280;37521;52.020;-1.740;2023-05-25T06:43:14;101261.09;;;9.85;100.00
51452;BME280;37521;52.020;-1.740;2023-05-25T06:45:52;101270.56;;;9.93;100.00
51452;BME280;37521;52.020;-1.740;2023-05-25T06:48:23;101272.13;;;10.02;100.00
51452;BME280;37521;52.020;-1.740;2023-05-25T06:50:51;101271.16;;;10.06;100.00
51452;BME280;37521;52.020;-1.740;2023-05-25T06:53:20;101269.28;;;10.11;100.00
51452;BME280;37521;52.020;-1.740;2023-05-25T06:55:48;101271.72;;;10.19;100.00
51452;BME280;37521;52.020;-1.740;2023-05-25T06:58:17;101267.22;;;10.22;100.00
51452;BME280;37521;52.020;-1.740;2023-05-25T07:00:45;101249.47;;;10.30;100.00
51452;BME280;37521;52.020;-1.740;2023-05-25T07:03:13;101264.19;;;10.39;100.00
51452;BME280;37521;52.020;-1.740;2023-05-25T07:05:44;101266.59;;;10.48;100.00
51452;BME280;37521;52.020;-1.740;2023-05-25T07:08:12;101261.97;;;10.58;100.00
51452;BME280;37521;52.020;-1.740;2023-05-25T07:10:40;101268.84;;;10.63;100.00
51452;BME280;37521;52.020;-1.740;2023-05-25T07:13:09;101273.09;;;10.69;100.00
51452;BME280;37521;52.020;-1.740;2023-05-25T07:15:37;101267.63;;;10.75;100.00
51452;BME280;37521;52.020;-1.740;2023-05-25T07:18:06;101274.50;;;10.82;100.00
51452;BME280;37521;52.020;-1.740;2023-05-25T07:20:38;101277.88;;;10.87;100.00
51452;BME280;37521;52.020;-1.740;2023-05-25T07:23:10;101276.69;;;10.99;100.00
51452;BME280;37521;52.020;-1.740;2023-05-25T07:25:40;101272.69;;;11.15;100.00
51452;BME280;37521;52.020;-1.740;2023-05-25T07:28:09;101276.06;;;11.21;100.00
51452;BME280;37521;52.020;-1.740;2023-05-25T07:30:38;101276.13;;;11.19;100.00
51452;BME280;37521;52.020;-1.740;2023-05-25T07:33:07;101278.59;;;11.25;100.00
51452;BME280;37521;52.020;-1.740;2023-05-25T07:35:36;101281.88;;;11.33;100.00
51452;BME280;37521;52.020;-1.740;2023-05-25T07:38:04;101279.78;;;11.44;100.00
51452;BME280;37521;52.020;-1.740;2023-05-25T07:40:34;101281.19;;;11.56;100.00
51452;BME280;37521;52.020;-1.740;2023-05-25T07:43:03;101278.53;;;11.56;100.00
51452;BME280;37521;52.020;-1.740;2023-05-25T07:45:34;101278.94;;;11.44;100.00
51452;BME280;37521;52.020;-1.740;2023-05-25T07:48:03;101283.38;;;11.42;100.00
51452;BME280;37521;52.020;-1.740;2023-05-25T07:50:34;101293.78;;;11.48;100.00
51452;BME280;37521;52.020;-1.740;2023-05-25T07:53:02;101290.19;;;11.51;100.00
51452;BME280;37521;52.020;-1.740;2023-05-25T07:55:30;101287.34;;;11.57;100.00
51452;BME280;37521;52.020;-1.740;2023-05-25T07:58:00;101286.28;;;11.64;100.00
51452;BME280;37521;52.020;-1.740;2023-05-25T08:00:30;101289.53;;;11.72;100.00
51452;BME280;37521;52.020;-1.740;2023-05-25T08:02:58;101283.06;;;11.84;100.00
51452;BME280;37521;52.020;-1.740;2023-05-25T08:05:28;101288.91;;;11.93;100.00
51452;BME280;37521;52.020;-1.740;2023-05-25T08:07:57;101291.44;;;11.96;100.00
51452;BME280;37521;52.020;-1.740;2023-05-25T08:10:25;101288.72;;;11.99;100.00
51452;BME280;37521;52.020;-1.740;2023-05-25T08:12:59;101286.19;;;11.95;100.00
51452;BME280;37521;52.020;-1.740;2023-05-25T08:15:28;101291.38;;;11.99;100.00
51452;BME280;37521;52.020;-1.740;2023-05-25T08:17:56;101285.03;;;12.04;100.00
51452;BME280;37521;52.020;-1.740;2023-05-25T08:20:25;101285.81;;;12.07;100.00
51452;BME280;37521;52.020;-1.740;2023-05-25T08:22:54;101289.88;;;12.19;100.00
51452;BME280;37521;52.020;-1.740;2023-05-25T08:25:22;101292.00;;;12.34;100.00
51452;BME280;37521;52.020;-1.740;2023-05-25T08:27:50;101296.56;;;12.55;100.00
51452;BME280;37521;52.020;-1.740;2023-05-25T08:30:20;101297.03;;;12.68;100.00
51452;BME280;37521;52.020;-1.740;2023-05-25T08:32:49;101300.44;;;12.72;100.00
51452;BME280;37521;52.020;-1.740;2023-05-25T08:35:18;101286.41;;;12.68;100.00
51452;BME280;37521;52.020;-1.740;2023-05-25T08:37:46;101291.84;;;12.65;100.00
51452;BME280;37521;52.020;-1.740;2023-05-25T08:40:15;101289.00;;;12.70;100.00
51452;BME280;37521;52.020;-1.740;2023-05-25T08:42:46;101285.41;;;12.72;100.00
51452;BME280;37521;52.020;-1.740;2023-05-25T08:45:14;101287.78;;;12.80;100.00
51452;BME280;37521;52.020;-1.740;2023-05-25T08:48:03;101288.28;;;12.66;100.00
51452;BME280;37521;52.020;-1.740;2023-05-25T08:50:37;101293.84;;;12.59;100.00
51452;BME280;37521;52.020;-1.740;2023-05-25T08:53:07;101290.13;;;12.63;100.00
51452;BME280;37521;52.020;-1.740;2023-05-25T08:55:40;101287.50;;;12.63;100.00
51452;BME280;37521;52.020;-1.740;2023-05-25T08:58:15;101288.53;;;12.83;100.00
51452;BME280;37521;52.020;-1.740;2023-05-25T09:00:49;101293.72;;;13.12;100.00
51452;BME280;37521;52.020;-1.740;2023-05-25T09:03:20;101278.06;;;13.29;100.00
51452;BME280;37521;52.020;-1.740;2023-05-25T09:05:49;101282.38;;;13.33;100.00
51452;BME280;37521;52.020;-1.740;2023-05-25T09:08:19;101290.16;;;13.38;100.00
51452;BME280;37521;52.020;-1.740;2023-05-25T09:10:49;101283.38;;;13.29;100.00
51452;BME280;37521;52.020;-1.740;2023-05-25T09:13:19;101293.69;;;13.13;100.00
51452;BME280;37521;52.020;-1.740;2023-05-25T09:15:49;101295.56;;;13.09;100.00
51452;BME280;37521;52.020;-1.740;2023-05-25T09:18:19;101297.78;;;13.22;100.00
51452;BME280;37521;52.020;-1.740;2023-05-25T09:20:48;101297.28;;;13.35;100.00
51452;BME280;37521;52.020;-1.740;2023-05-25T09:23:17;101289.84;;;13.69;100.00
51452;BME280;37521;52.020;-1.740;2023-05-25T09:25:46;101288.50;;;14.02;100.00
51452;BME280;37521;52.020;-1.740;2023-05-25T09:28:17;101304.44;;;14.02;100.00
51452;BME280;37521;52.020;-1.740;2023-05-25T09:30:53;101287.16;;;13.92;100.00
51452;BME280;37521;52.020;-1.740;2023-05-25T09:33:23;101292.63;;;13.87;100.00
51452;BME280;37521;52.020;-1.740;2023-05-25T09:35:51;101285.31;;;13.94;100.00
51452;BME280;37521;52.020;-1.740;2023-05-25T09:38:21;101292.00;;;14.04;100.00
51452;BME280;37521;52.020;-1.740;2023-05-25T09:40:50;101296.66;;;14.20;100.00
51452;BME280;37521;52.020;-1.740;2023-05-25T09:43:18;101299.03;;;14.05;100.00
51452;BME280;37521;52.020;-1.740;2023-05-25T09:46:06;101303.66;;;14.00;100.00
51452;BME280;37521;52.020;-1.740;2023-05-25T09:48:36;101306.91;;;13.85;100.00
51452;BME280;37521;52.020;-1.740;2023-05-25T09:51:05;101303.56;;;13.80;100.00
51452;BME280;37521;52.020;-1.740;2023-05-25T09:53:34;101295.19;;;14.12;100.00
51452;BME280;37521;52.020;-1.740;2023-05-25T09:56:04;101300.38;;;14.59;100.00
51452;BME280;37521;52.020;-1.740;2023-05-25T09:58:33;101292.84;;;14.69;100.00
51452;BME280;37521;52.020;-1.740;2023-05-25T10:01:01;101294.97;;;14.61;100.00
51452;BME280;37521;52.020;-1.740;2023-05-25T10:03:31;101286.81;;;14.65;100.00
51452;BME280;37521;52.020;-1.740;2023-05-25T10:06:08;101288.91;;;14.78;100.00
51452;BME280;37521;52.020;-1.740;2023-05-25T10:08:40;101296.00;;;14.79;100.00
51452;BME280;37521;52.020;-1.740;2023-05-25T10:11:16;101296.09;;;14.76;100.00
51452;BME280;37521;52.020;-1.740;2023-05-25T10:13:47;101291.91;;;14.70;100.00
51452;BME280;37521;52.020;-1.740;2023-05-25T10:16:18;101294.66;;;14.89;100.00
51452;BME280;37521;52.020;-1.740;2023-05-25T10:18:54;101289.72;;;15.39;100.00
51452;BME280;37521;52.020;-1.740;2023-05-25T10:21:33;101293.69;;;15.49;100.00
51452;BME280;37521;52.020;-1.740;2023-05-25T10:24:08;101299.25;;;15.45;100.00
51452;BME280;37521;52.020;-1.740;2023-05-25T10:26:46;101295.69;;;15.44;100.00
51452;BME280;37521;52.020;-1.740;2023-05-25T10:29:16;101297.16;;;15.51;100.00
51452;BME280;37521;52.020;-1.740;2023-05-25T10:31:45;101300.88;;;15.47;100.00
51452;BME280;37521;52.020;-1.740;2023-05-25T10:34:14;101301.38;;;15.37;100.00
51452;BME280;37521;52.020;-1.740;2023-05-25T10:36:46;101300.31;;;15.41;100.00
51452;BME280;37521;52.020;-1.740;2023-05-25T10:39:17;101301.91;;;15.45;100.00
51452;BME280;37521;52.020;-1.740;2023-05-25T10:41:48;101306.91;;;15.51;100.00
51452;BME280;37521;52.020;-1.740;2023-05-25T10:44:18;101303.81;;;15.62;100.00
51452;BME280;37521;52.020;-1.740;2023-05-25T10:46:47;101308.22;;;15.61;100.00
51452;BME280;37521;52.020;-1.740;2023-05-25T10:49:25;101311.31;;;15.72;100.00
51452;BME280;37521;52.020;-1.740;2023-05-25T10:51:59;101307.81;;;15.89;99.22
51452;BME280;37521;52.020;-1.740;2023-05-25T10:54:28;101307.41;;;15.79;100.00
51452;BME280;37521;52.020;-1.740;2023-05-25T10:57:08;101317.91;;;15.83;100.00
51452;BME280;37521;52.020;-1.740;2023-05-25T10:59:40;101312.00;;;15.95;100.00
51452;BME280;37521;52.020;-1.740;2023-05-25T11:02:11;101307.97;;;16.05;100.00
51452;BME280;37521;52.020;-1.740;2023-05-25T11:04:39;101307.81;;;16.08;100.00
51452;BME280;37521;52.020;-1.740;2023-05-25T11:07:14;101300.47;;;16.13;100.00
51452;BME280;37521;52.020;-1.740;2023-05-25T11:09:56;101296.75;;;16.52;99.85
51452;BME280;37521;52.020;-1.740;2023-05-25T11:12:25;101302.41;;;16.63;99.08
51452;BME280;37521;52.020;-1.740;2023-05-25T11:15:13;101304.66;;;16.72;97.87
51452;BME280;37521;52.020;-1.740;2023-05-25T11:17:56;101303.06;;;16.85;98.34
51452;BME280;37521;52.020;-1.740;2023-05-25T11:20:27;101295.75;;;16.89;91.00
51452;BME280;37521;52.020;-1.740;2023-05-25T11:22:58;101301.63;;;17.13;87.75
51452;BME280;37521;52.020;-1.740;2023-05-25T11:25:38;101300.00;;;16.76;89.49
51452;BME280;37521;52.020;-1.740;2023-05-25T11:28:07;101294.94;;;16.35;96.49
51452;BME280;37521;52.020;-1.740;2023-05-25T11:30:39;101293.91;;;16.38;100.00
51452;BME280;37521;52.020;-1.740;2023-05-25T11:33:08;101297.53;;;16.54;95.65
51452;BME280;37521;52.020;-1.740;2023-05-25T11:35:37;101293.88;;;16.74;95.74
51452;BME280;37521;52.020;-1.740;2023-05-25T11:38:07;101294.09;;;16.52;99.47
51452;BME280;37521;52.020;-1.740;2023-05-25T11:40:36;101288.06;;;16.66;96.57
51452;BME280;37521;52.020;-1.740;2023-05-25T11:43:13;101286.69;;;16.57;100.00
51452;BME280;37521;52.020;-1.740;2023-05-25T11:45:42;101289.69;;;16.51;100.00
51452;BME280;37521;52.020;-1.740;2023-05-25T11:48:12;101292.28;;;16.52;100.00
51452;BME280;37521;52.020;-1.740;2023-05-25T11:50:42;101288.25;;;16.44;100.00
51452;BME280;37521;52.020;-1.740;2023-05-25T11:53:12;101287.91;;;16.15;100.00
51452;BME280;37521;52.020;-1.740;2023-05-25T11:55:47;101283.88;;;16.43;100.00
51452;BME280;37521;52.020;-1.740;2023-05-25T11:58:32;101284.44;;;17.01;97.84
51452;BME280;37521;52.020;-1.740;2023-05-25T12:01:16;101278.94;;;17.37;100.00
51452;BME280;37521;52.020;-1.740;2023-05-25T12:03:45;101294.22;;;17.18;99.33
51452;BME280;37521;52.020;-1.740;2023-05-25T12:06:27;101288.69;;;16.88;100.00
51452;BME280;37521;52.020;-1.740;2023-05-25T12:08:59;101287.66;;;16.91;100.00
51452;BME280;37521;52.020;-1.740;2023-05-25T12:11:29;101282.38;;;16.73;100.00
51452;BME280;37521;52.020;-1.740;2023-05-25T12:13:59;101279.22;;;16.82;99.30
51452;BME280;37521;52.020;-1.740;2023-05-25T12:16:29;101287.03;;;17.03;99.64
51452;BME280;37521;52.020;-1.740;2023-05-25T12:18:58;101286.47;;;16.96;100.00
51452;BME280;37521;52.020;-1.740;2023-05-25T12:21:26;101278.66;;;17.26;94.02
51452;BME280;37521;52.020;-1.740;2023-05-25T12:23:58;101292.25;;;17.55;93.69
51452;BME280;37521;52.020;-1.740;2023-05-25T12:26:28;101282.59;;;17.52;93.09
51452;BME280;37521;52.020;-1.740;2023-05-25T12:28:58;101283.31;;;17.38;95.54
51452;BME280;37521;52.020;-1.740;2023-05-25T12:31:27;101285.63;;;17.29;93.14
51452;BME280;37521;52.020;-1.740;2023-05-25T12:34:04;101290.41;;;17.39;91.85
51452;BME280;37521;52.020;-1.740;2023-05-25T12:36:37;101301.75;;;17.27;93.20
51452;BME280;37521;52.020;-1.740;2023-05-25T12:39:08;101292.91;;;17.09;94.71
51452;BME280;37521;52.020;-1.740;2023-05-25T12:41:45;101293.31;;;16.84;96.71
51452;BME280;37521;52.020;-1.740;2023-05-25T12:44:22;101299.41;;;16.69;99.48
51452;BME280;37521;52.020;-1.740;2023-05-25T12:46:52;101291.91;;;16.77;98.38
51452;BME280;37521;52.020;-1.740;2023-05-25T12:49:28;101284.78;;;16.95;97.96
51452;BME280;37521;52.020;-1.740;2023-05-25T12:51:58;101290.66;;;17.02;95.81
51452;BME280;37521;52.020;-1.740;2023-05-25T12:54:36;101288.22;;;16.97;95.92